createdAt,value
2017-10-28T00:01:27.343Z,84.56
2017-10-28T00:03:58.073Z,84.64
2017-10-28T00:06:25.659Z,84.66
2017-10-28T00:08:53.336Z,84.65
2017-10-28T00:11:21.133Z,84.43
2017-10-28T00:13:48.763Z,84.58
2017-10-28T00:16:16.391Z,84.57
2017-10-28T00:18:44.031Z,84.08
2017-10-28T00:21:11.647Z,83.82
2017-10-28T00:23:39.296Z,84.03
2017-10-28T00:26:07.023Z,84.13
2017-10-28T00:28:34.640Z,84.25
2017-10-28T00:31:07.749Z,84.52
2017-10-28T00:36:42.945Z,84.48
2017-10-28T00:39:33.153Z,84.30
2017-10-28T00:45:10.453Z,84.13
2017-10-28T00:57:33.898Z,85.04
2017-10-28T01:00:02.386Z,85.21
2017-10-28T01:02:29.978Z,85.17
2017-10-28T01:04:57.639Z,85.17
2017-10-28T01:07:25.256Z,85.08
2017-10-28T01:09:52.882Z,85.23
2017-10-28T01:12:20.515Z,85.11
2017-10-28T01:14:48.182Z,85.12
2017-10-28T01:17:15.891Z,85.18
2017-10-28T01:19:43.505Z,85.21
2017-10-28T01:22:11.131Z,85.11
2017-10-28T01:24:38.726Z,85.27
2017-10-28T01:27:06.442Z,85.55
2017-10-28T01:29:34.603Z,85.79
2017-10-28T01:32:02.248Z,85.92
2017-10-28T01:34:29.864Z,86.00
2017-10-28T01:36:57.498Z,86.22
2017-10-28T01:39:25.092Z,86.65
2017-10-28T01:41:52.722Z,87.53
2017-10-28T01:44:20.325Z,88.13
2017-10-28T01:46:48.046Z,89.15
2017-10-28T01:49:15.688Z,89.92
2017-10-28T01:51:43.307Z,89.51
2017-10-28T01:54:10.897Z,89.04
2017-10-28T01:56:38.538Z,89.08
2017-10-28T01:59:06.141Z,89.06
2017-10-28T02:01:33.770Z,88.54
2017-10-28T02:04:01.369Z,88.22
2017-10-28T02:06:28.994Z,88.23
2017-10-28T02:08:56.583Z,88.28
2017-10-28T02:11:25.494Z,88.18
2017-10-28T02:13:53.396Z,88.17
2017-10-28T02:16:21.158Z,88.29
2017-10-28T02:18:49.197Z,88.23
2017-10-28T02:21:16.963Z,88.28
2017-10-28T02:23:44.796Z,88.18
2017-10-28T02:26:12.521Z,88.33
2017-10-28T02:28:40.215Z,88.55
2017-10-28T02:31:07.880Z,88.43
2017-10-28T02:33:35.746Z,88.73
2017-10-28T02:36:05.933Z,88.86
2017-10-28T02:38:33.523Z,88.73
2017-10-28T02:41:01.154Z,88.78
2017-10-28T02:43:28.754Z,88.91
2017-10-28T02:45:56.375Z,89.10
2017-10-28T02:48:24.063Z,89.13
2017-10-28T02:50:51.789Z,89.28
2017-10-28T02:53:23.291Z,89.43
2017-10-28T02:55:51.106Z,89.55
2017-10-28T02:58:18.809Z,89.54
2017-10-28T03:00:46.714Z,89.60
2017-10-28T03:03:14.420Z,89.69
2017-10-28T03:05:42.292Z,89.43
2017-10-28T03:08:09.947Z,89.59
2017-10-28T03:10:37.530Z,89.56
2017-10-28T03:13:05.148Z,89.71
2017-10-28T03:15:32.783Z,89.77
2017-10-28T03:18:00.426Z,89.71
2017-10-28T03:20:28.027Z,89.71
2017-10-28T03:22:55.654Z,89.79
2017-10-28T03:25:23.252Z,89.96
2017-10-28T03:27:50.915Z,90.01
2017-10-28T03:30:18.513Z,90.06
2017-10-28T03:32:46.110Z,89.92
2017-10-28T03:35:13.734Z,90.15
2017-10-28T03:37:41.347Z,90.33
2017-10-28T03:40:09.002Z,90.45
2017-10-28T03:42:36.586Z,90.57
2017-10-28T03:45:04.203Z,90.66
2017-10-28T03:47:31.894Z,90.97
2017-10-28T03:49:59.496Z,91.02
2017-10-28T03:52:27.089Z,91.06
2017-10-28T03:54:54.726Z,90.98
2017-10-28T03:57:22.327Z,90.86
2017-10-28T03:59:49.962Z,90.85
2017-10-28T04:02:17.554Z,90.84
2017-10-28T04:04:45.174Z,90.82
2017-10-28T04:07:12.842Z,90.80
2017-10-28T04:09:40.527Z,90.64
2017-10-28T04:12:08.113Z,90.63
2017-10-28T04:14:35.743Z,90.68
2017-10-28T04:17:03.372Z,90.60
2017-10-28T04:19:31.002Z,90.59
2017-10-28T04:21:58.693Z,90.37
2017-10-28T04:24:26.330Z,90.19
2017-10-28T04:26:53.927Z,90.13
2017-10-28T04:29:21.577Z,90.05
2017-10-28T04:31:49.206Z,90.02
2017-10-28T04:34:16.919Z,90.06
2017-10-28T04:36:44.606Z,89.99
2017-10-28T04:39:12.297Z,90.25
2017-10-28T04:41:40.240Z,90.24
2017-10-28T04:44:08.068Z,90.37
2017-10-28T04:46:35.654Z,90.30
2017-10-28T04:49:03.277Z,90.33
2017-10-28T04:51:30.862Z,90.33
2017-10-28T04:53:58.496Z,90.35
2017-10-28T04:56:26.099Z,90.44
2017-10-28T04:58:53.727Z,90.45
2017-10-28T05:01:21.335Z,90.49
2017-10-28T05:03:49.074Z,90.54
2017-10-28T05:06:16.682Z,90.56
2017-10-28T05:08:44.274Z,90.51
2017-10-28T05:11:11.926Z,90.24
2017-10-28T05:13:39.559Z,90.18
2017-10-28T05:16:07.143Z,90.35
2017-10-28T05:18:34.768Z,90.14
2017-10-28T05:21:02.392Z,90.30
2017-10-28T05:23:29.980Z,90.30
2017-10-28T05:25:57.650Z,89.97
2017-10-28T05:28:25.255Z,90.12
2017-10-28T05:30:52.888Z,90.14
2017-10-28T05:33:20.494Z,89.92
2017-10-28T05:35:48.129Z,90.02
2017-10-28T05:38:15.834Z,90.07
2017-10-28T05:40:43.451Z,90.23
2017-10-28T05:43:11.039Z,90.26
2017-10-28T05:45:38.699Z,90.20
2017-10-28T05:48:06.314Z,90.23
2017-10-28T05:50:33.949Z,90.21
2017-10-28T05:53:01.547Z,89.98
2017-10-28T05:55:29.162Z,90.05
2017-10-28T05:57:56.771Z,89.91
2017-10-28T06:00:24.435Z,89.57
2017-10-28T06:02:52.027Z,89.40
2017-10-28T06:05:19.610Z,89.25
2017-10-28T06:07:47.267Z,89.18
2017-10-28T06:10:14.861Z,89.04
2017-10-28T06:12:42.483Z,88.91
2017-10-28T06:15:10.083Z,88.70
2017-10-28T06:17:37.717Z,88.28
2017-10-28T06:20:05.319Z,88.51
2017-10-28T06:22:32.938Z,88.57
2017-10-28T06:25:00.545Z,88.42
2017-10-28T06:27:28.175Z,88.37
2017-10-28T06:29:55.774Z,88.37
2017-10-28T06:32:23.387Z,88.43
2017-10-28T06:34:50.990Z,88.33
2017-10-28T06:37:18.635Z,88.32
2017-10-28T06:39:46.269Z,88.10
2017-10-28T06:42:13.875Z,88.21
2017-10-28T06:44:41.501Z,88.17
2017-10-28T06:47:09.127Z,87.99
2017-10-28T06:49:36.719Z,88.16
2017-10-28T06:52:04.310Z,87.84
2017-10-28T06:54:31.952Z,87.71
2017-10-28T06:56:59.556Z,87.69
2017-10-28T06:59:27.570Z,87.42
2017-10-28T07:01:55.279Z,87.15
2017-10-28T07:04:22.905Z,87.13
2017-10-28T07:06:50.511Z,87.24
2017-10-28T07:09:18.164Z,87.14
2017-10-28T07:11:45.738Z,86.92
2017-10-28T07:14:13.360Z,86.87
2017-10-28T07:16:40.999Z,87.13
2017-10-28T07:19:08.646Z,87.07
2017-10-28T07:21:36.248Z,86.88
2017-10-28T07:24:03.884Z,86.87
2017-10-28T07:26:31.491Z,86.71
2017-10-28T07:28:59.138Z,86.60
2017-10-28T07:31:26.750Z,86.66
2017-10-28T07:33:54.387Z,86.51
2017-10-28T07:36:21.980Z,86.61
2017-10-28T07:38:49.607Z,86.67
2017-10-28T07:41:17.201Z,86.51
2017-10-28T07:43:44.834Z,86.11
2017-10-28T07:46:12.431Z,85.71
2017-10-28T07:48:40.070Z,85.91
2017-10-28T07:51:07.675Z,86.11
2017-10-28T07:53:35.318Z,85.89
2017-10-28T07:56:02.907Z,85.93
2017-10-28T07:58:30.538Z,85.87
2017-10-28T08:00:58.136Z,86.09
2017-10-28T08:03:25.762Z,85.96
2017-10-28T08:05:53.394Z,86.01
2017-10-28T08:08:21.022Z,85.87
2017-10-28T08:10:48.623Z,85.88
2017-10-28T08:13:16.255Z,85.67
2017-10-28T08:15:43.856Z,85.69
2017-10-28T08:18:11.503Z,85.71
2017-10-28T08:20:39.108Z,85.58
2017-10-28T08:23:06.846Z,85.49
2017-10-28T08:25:34.467Z,85.42
2017-10-28T08:28:02.164Z,85.47
2017-10-28T08:30:29.805Z,85.33
2017-10-28T08:32:57.403Z,85.02
2017-10-28T08:35:25.028Z,85.16
2017-10-28T08:37:52.631Z,84.86
2017-10-28T08:40:20.273Z,84.78
2017-10-28T08:42:47.895Z,84.88
2017-10-28T08:45:15.524Z,84.80
2017-10-28T08:47:43.132Z,84.37
2017-10-28T08:50:10.778Z,84.47
2017-10-28T08:52:38.440Z,84.49
2017-10-28T08:55:06.096Z,84.63
2017-10-28T08:57:33.710Z,84.85
2017-10-28T09:00:01.357Z,84.48
2017-10-28T09:02:28.958Z,84.50
2017-10-28T09:04:56.730Z,84.79
2017-10-28T09:07:24.299Z,84.69
2017-10-28T09:09:51.894Z,84.50
2017-10-28T09:12:19.589Z,84.55
2017-10-28T09:14:47.211Z,84.35
2017-10-28T09:17:14.822Z,84.55
2017-10-28T09:19:42.431Z,84.57
2017-10-28T09:22:10.059Z,84.55
2017-10-28T09:24:37.675Z,84.66
2017-10-28T09:27:05.316Z,84.15
2017-10-28T09:29:32.927Z,84.15
2017-10-28T09:32:00.611Z,84.15
2017-10-28T09:34:28.245Z,84.01
2017-10-28T09:36:55.931Z,83.73
2017-10-28T09:39:23.563Z,83.77
2017-10-28T09:41:51.194Z,83.61
2017-10-28T09:44:18.822Z,83.79
2017-10-28T09:46:46.480Z,83.95
2017-10-28T09:49:14.114Z,83.32
2017-10-28T09:51:41.817Z,83.82
2017-10-28T09:54:09.459Z,83.77
2017-10-28T09:56:37.160Z,84.20
2017-10-28T09:59:04.758Z,83.83
2017-10-28T10:01:32.355Z,84.05
2017-10-28T10:03:59.993Z,83.90
2017-10-28T10:06:27.591Z,83.95
2017-10-28T10:08:55.282Z,84.29
2017-10-28T10:11:22.900Z,83.98
2017-10-28T10:13:50.551Z,83.97
2017-10-28T10:16:18.138Z,83.89
2017-10-28T10:18:45.770Z,83.79
2017-10-28T10:21:13.443Z,83.57
2017-10-28T10:23:41.175Z,83.71
2017-10-28T10:26:08.766Z,83.08
2017-10-28T10:28:36.379Z,83.03
2017-10-28T10:31:04.035Z,82.95
2017-10-28T10:33:31.719Z,83.22
2017-10-28T10:35:59.384Z,83.02
2017-10-28T10:38:26.997Z,83.14
2017-10-28T10:40:54.628Z,82.99
2017-10-28T10:43:22.251Z,82.79
2017-10-28T10:45:49.957Z,83.17
2017-10-28T10:48:17.585Z,82.60
2017-10-28T10:50:45.339Z,82.75
2017-10-28T10:53:12.971Z,82.88
2017-10-28T10:55:40.614Z,82.93
2017-10-28T10:58:08.264Z,83.31
2017-10-28T11:00:35.919Z,83.20
2017-10-28T11:03:03.484Z,82.96
2017-10-28T11:05:31.118Z,82.74
2017-10-28T11:07:58.812Z,82.69
2017-10-28T11:10:26.434Z,82.91
2017-10-28T11:12:54.048Z,82.86
2017-10-28T11:15:21.757Z,82.82
2017-10-28T11:17:49.443Z,82.81
2017-10-28T11:20:17.141Z,82.99
2017-10-28T11:22:44.742Z,82.88
2017-10-28T11:25:12.386Z,83.11
2017-10-28T11:27:39.999Z,83.32
2017-10-28T11:30:07.635Z,83.04
2017-10-28T11:32:35.229Z,83.02
2017-10-28T11:35:02.888Z,82.89
2017-10-28T11:37:30.501Z,83.17
2017-10-28T11:39:58.177Z,82.62
2017-10-28T11:42:25.896Z,82.48
2017-10-28T11:44:53.610Z,82.52
2017-10-28T11:47:21.253Z,82.59
2017-10-28T11:49:48.887Z,82.80
2017-10-28T11:52:16.517Z,82.52
2017-10-28T11:54:44.159Z,82.49
2017-10-28T11:57:11.828Z,82.46
2017-10-28T11:59:39.599Z,82.63
2017-10-28T12:02:07.228Z,82.13
2017-10-28T12:04:34.897Z,82.07
2017-10-28T12:07:02.557Z,81.28
2017-10-28T12:09:30.234Z,81.22
2017-10-28T12:11:57.914Z,81.45
2017-10-28T12:14:25.540Z,81.31
2017-10-28T12:16:53.204Z,81.31
2017-10-28T12:19:20.845Z,81.37
2017-10-28T12:21:48.487Z,81.21
2017-10-28T12:24:16.107Z,80.99
2017-10-28T12:26:43.744Z,80.80
2017-10-28T12:29:11.389Z,81.04
2017-10-28T12:31:39.036Z,81.33
2017-10-28T12:34:06.639Z,81.43
2017-10-28T12:36:34.292Z,80.83
2017-10-28T12:39:01.906Z,81.05
2017-10-28T12:41:29.566Z,81.43
2017-10-28T12:43:57.179Z,81.22
2017-10-28T12:46:24.823Z,81.07
2017-10-28T12:48:52.418Z,81.35
2017-10-28T12:51:20.176Z,81.49
2017-10-28T12:53:47.776Z,81.21
2017-10-28T12:56:15.420Z,81.66
2017-10-28T12:58:43.021Z,81.63
2017-10-28T13:01:10.793Z,81.68
2017-10-28T13:03:38.459Z,81.69
2017-10-28T13:06:06.086Z,81.69
2017-10-28T13:08:33.708Z,81.81
2017-10-28T13:11:01.343Z,81.62
2017-10-28T13:13:28.952Z,81.41
2017-10-28T13:15:56.625Z,81.16
2017-10-28T13:18:24.229Z,81.32
2017-10-28T13:20:51.883Z,81.32
2017-10-28T13:23:19.526Z,81.49
2017-10-28T13:25:47.150Z,80.57
2017-10-28T13:28:14.807Z,80.88
2017-10-28T13:30:42.454Z,80.72
2017-10-28T13:33:10.179Z,80.38
2017-10-28T13:35:37.788Z,80.33
2017-10-28T13:38:05.465Z,80.67
2017-10-28T13:40:33.113Z,80.43
2017-10-28T13:43:00.788Z,80.49
2017-10-28T13:45:28.399Z,80.48
2017-10-28T13:47:56.048Z,80.41
2017-10-28T13:50:23.688Z,80.41
2017-10-28T13:52:51.340Z,80.41
2017-10-28T13:55:18.970Z,81.10
2017-10-28T13:57:46.648Z,80.77
2017-10-28T14:00:15.240Z,80.87
2017-10-28T14:02:42.971Z,80.89
2017-10-28T14:05:10.610Z,80.99
2017-10-28T14:07:38.267Z,81.20
2017-10-28T14:10:05.933Z,81.08
2017-10-28T14:12:33.698Z,81.34
2017-10-28T14:15:01.455Z,81.47
2017-10-28T14:17:29.284Z,81.71
2017-10-28T14:19:57.117Z,81.78
2017-10-28T14:22:25.088Z,81.70
2017-10-28T14:24:52.703Z,81.89
2017-10-28T14:27:20.408Z,81.84
2017-10-28T14:29:48.098Z,81.83
2017-10-28T14:32:15.735Z,81.90
2017-10-28T14:34:43.324Z,81.54
2017-10-28T14:37:10.965Z,81.77
2017-10-28T14:39:38.567Z,81.79
2017-10-28T14:42:06.302Z,81.43
2017-10-28T14:44:33.989Z,81.77
2017-10-28T14:47:01.602Z,81.67
2017-10-28T14:49:29.370Z,81.92
2017-10-28T14:51:56.999Z,82.24
2017-10-28T14:54:24.627Z,82.16
2017-10-28T14:56:52.297Z,82.31
2017-10-28T14:59:19.923Z,82.43
2017-10-28T15:01:47.601Z,82.53
2017-10-28T15:04:15.222Z,82.55
2017-10-28T15:06:42.884Z,82.42
2017-10-28T15:09:10.538Z,82.76
2017-10-28T15:11:38.148Z,82.48
2017-10-28T15:14:05.843Z,82.68
2017-10-28T15:16:33.470Z,82.75
2017-10-28T15:19:01.111Z,82.84
2017-10-28T15:21:28.719Z,82.84
2017-10-28T15:23:56.376Z,82.83
2017-10-28T15:26:23.978Z,82.77
2017-10-28T15:28:51.635Z,82.54
2017-10-28T15:31:19.275Z,82.85
2017-10-28T15:33:46.922Z,82.89
2017-10-28T15:36:14.535Z,83.06
2017-10-28T15:38:42.176Z,83.29
2017-10-28T15:41:09.812Z,83.39
2017-10-28T15:43:37.455Z,83.22
2017-10-28T15:46:05.063Z,83.46
2017-10-28T15:48:32.696Z,83.60
2017-10-28T15:51:00.302Z,83.72
2017-10-28T15:53:27.952Z,83.90
2017-10-28T15:55:55.569Z,83.97
2017-10-28T15:58:23.231Z,84.13
2017-10-28T16:00:50.845Z,84.22
2017-10-28T16:03:18.481Z,84.29
2017-10-28T16:05:46.095Z,84.37
2017-10-28T16:08:13.795Z,84.29
2017-10-28T16:10:41.434Z,84.08
2017-10-28T16:13:09.146Z,84.27
2017-10-28T16:15:36.755Z,84.33
2017-10-28T16:18:04.394Z,84.31
2017-10-28T16:20:32.015Z,84.23
2017-10-28T16:22:59.662Z,84.40
2017-10-28T16:25:27.268Z,84.56
2017-10-28T16:27:54.903Z,85.01
2017-10-28T16:30:22.503Z,85.40
2017-10-28T16:32:50.158Z,85.86
2017-10-28T16:35:17.760Z,86.22
2017-10-28T16:37:45.378Z,86.50
2017-10-28T16:40:13.013Z,86.71
2017-10-28T16:42:40.634Z,86.85
2017-10-28T16:45:08.267Z,87.71
2017-10-28T16:47:35.882Z,88.30
2017-10-28T16:50:03.525Z,88.87
2017-10-28T16:52:31.132Z,89.19
2017-10-28T16:54:58.769Z,89.24
2017-10-28T16:57:26.375Z,89.36
2017-10-28T16:59:54.023Z,89.64
2017-10-28T17:02:21.679Z,89.86
2017-10-28T17:04:49.367Z,90.12
2017-10-28T17:07:16.970Z,90.57
2017-10-28T17:09:44.598Z,90.79
2017-10-28T17:12:12.279Z,91.09
2017-10-28T17:14:39.900Z,91.32
2017-10-28T17:17:07.513Z,91.44
2017-10-28T17:19:35.170Z,91.56
2017-10-28T17:22:02.763Z,91.63
2017-10-28T17:24:30.404Z,91.90
2017-10-28T17:26:58.004Z,92.27
2017-10-28T17:29:25.699Z,92.46
2017-10-28T17:31:53.419Z,92.79
2017-10-28T17:34:21.066Z,93.15
2017-10-28T17:36:48.640Z,93.31
2017-10-28T17:39:16.374Z,93.42
2017-10-28T17:41:43.985Z,93.70
2017-10-28T17:44:11.649Z,93.79
2017-10-28T17:46:39.251Z,94.04
2017-10-28T17:49:06.901Z,94.19
2017-10-28T17:51:34.495Z,94.20
2017-10-28T17:54:02.147Z,94.48
2017-10-28T17:56:29.732Z,94.70
2017-10-28T17:58:57.369Z,94.88
2017-10-28T18:01:25.038Z,95.12
2017-10-28T18:03:52.683Z,95.35
2017-10-28T18:06:20.279Z,95.54
2017-10-28T18:08:47.935Z,95.75
2017-10-28T18:11:15.630Z,95.98
2017-10-28T18:13:43.263Z,96.53
2017-10-28T18:16:10.907Z,96.12
2017-10-28T18:18:38.534Z,96.07
2017-10-28T18:21:06.135Z,96.26
2017-10-28T18:23:33.808Z,96.59
2017-10-28T18:26:01.455Z,96.74
2017-10-28T18:28:29.087Z,97.13
2017-10-28T18:30:56.713Z,97.45
2017-10-28T18:33:24.367Z,97.54
2017-10-28T18:35:51.967Z,97.84
2017-10-28T18:38:19.605Z,98.02
2017-10-28T18:40:47.210Z,98.07
2017-10-28T18:43:14.847Z,98.16
2017-10-28T18:45:42.472Z,98.26
2017-10-28T18:48:10.120Z,98.49
2017-10-28T18:50:37.710Z,98.87
2017-10-28T18:53:05.354Z,99.22
2017-10-28T18:55:33.006Z,99.52
2017-10-28T18:58:00.693Z,99.74
2017-10-28T19:00:28.292Z,99.94
2017-10-28T19:02:55.929Z,100.00
2017-10-28T19:05:23.527Z,100.00
2017-10-28T19:07:51.170Z,100.00
2017-10-28T19:10:18.793Z,100.00
2017-10-28T19:12:46.438Z,100.00
2017-10-28T19:15:14.072Z,100.00
2017-10-28T19:17:41.728Z,100.00
2017-10-28T19:20:09.360Z,100.00
2017-10-28T19:22:37.004Z,100.00
2017-10-28T19:25:04.639Z,100.00
2017-10-28T19:27:32.268Z,100.00
2017-10-28T19:29:59.967Z,100.00
2017-10-28T19:32:27.619Z,100.00
2017-10-28T19:34:55.225Z,100.00
2017-10-28T19:37:22.890Z,100.00
2017-10-28T19:39:50.499Z,100.00
2017-10-28T19:42:18.142Z,100.00
2017-10-28T19:44:45.755Z,100.00
2017-10-28T19:47:13.403Z,100.00
2017-10-28T19:49:41.028Z,100.00
2017-10-28T19:52:08.699Z,100.00
2017-10-28T19:54:36.317Z,100.00
2017-10-28T19:57:03.983Z,100.00
2017-10-28T19:59:31.599Z,100.00
2017-10-28T20:01:59.232Z,100.00
2017-10-28T20:04:26.841Z,100.00
2017-10-28T20:06:54.487Z,100.00
2017-10-28T20:09:22.119Z,100.00
2017-10-28T20:11:49.750Z,100.00
2017-10-28T20:14:17.363Z,100.00
2017-10-28T20:16:45.007Z,100.00
2017-10-28T20:19:12.766Z,100.00
2017-10-28T20:21:40.503Z,100.00
2017-10-28T20:24:08.117Z,100.00
2017-10-28T20:26:35.796Z,100.00
2017-10-28T20:29:03.421Z,100.00
2017-10-28T20:31:31.094Z,100.00
2017-10-28T20:33:58.734Z,100.00
2017-10-28T20:36:26.375Z,100.00
2017-10-28T20:38:54.024Z,100.00
2017-10-28T20:41:21.678Z,100.00
2017-10-28T20:43:49.361Z,100.00
2017-10-28T20:46:16.986Z,100.00
2017-10-28T20:48:44.619Z,100.00
2017-10-28T20:51:12.300Z,100.00
2017-10-28T20:53:39.952Z,100.00
2017-10-28T20:56:07.556Z,100.00
2017-10-28T20:58:35.255Z,100.00
2017-10-28T21:01:02.878Z,100.00
2017-10-28T21:03:30.563Z,100.00
2017-10-28T21:05:58.196Z,100.00
2017-10-28T21:08:25.842Z,100.00
2017-10-28T21:10:53.468Z,100.00
2017-10-28T21:13:21.115Z,100.00
2017-10-28T21:15:48.750Z,100.00
2017-10-28T21:18:16.516Z,100.00
2017-10-28T21:20:44.152Z,100.00
2017-10-28T21:23:11.796Z,100.00
2017-10-28T21:25:39.423Z,100.00
2017-10-28T21:28:07.091Z,100.00
2017-10-28T21:30:34.707Z,100.00
2017-10-28T21:33:02.362Z,100.00
2017-10-28T21:35:29.974Z,100.00
2017-10-28T21:37:57.627Z,100.00
2017-10-28T21:40:25.222Z,100.00
2017-10-28T21:42:53.000Z,100.00
2017-10-28T21:45:20.623Z,100.00
2017-10-28T21:47:48.238Z,100.00
2017-10-28T21:50:15.879Z,100.00
2017-10-28T21:52:43.482Z,100.00
2017-10-28T21:55:11.126Z,100.00
2017-10-28T21:57:38.739Z,100.00
2017-10-28T22:00:06.383Z,100.00
2017-10-28T22:02:34.005Z,100.00
2017-10-28T22:05:01.675Z,100.00
2017-10-28T22:07:29.299Z,100.00
2017-10-28T22:09:57.030Z,100.00
2017-10-28T22:12:24.666Z,100.00
2017-10-28T22:14:52.323Z,100.00
2017-10-28T22:17:19.935Z,100.00
2017-10-28T22:19:47.637Z,100.00
2017-10-28T22:22:15.233Z,100.00
2017-10-28T22:24:42.883Z,100.00
2017-10-28T22:27:10.550Z,100.00
2017-10-28T22:29:38.226Z,100.00
2017-10-28T22:32:05.843Z,100.00
2017-10-28T22:34:33.508Z,100.00
2017-10-28T22:37:01.136Z,100.00
2017-10-28T22:39:28.750Z,100.00
2017-10-28T22:41:56.394Z,100.00
2017-10-28T22:44:24.027Z,100.00
2017-10-28T22:46:51.652Z,100.00
2017-10-28T22:49:19.287Z,100.00
2017-10-28T22:51:46.912Z,100.00
2017-10-28T22:54:14.550Z,100.00
2017-10-28T22:56:42.186Z,100.00
2017-10-28T22:59:09.874Z,100.00
2017-10-28T23:01:37.518Z,100.00
2017-10-28T23:04:05.158Z,100.00
2017-10-28T23:06:32.791Z,100.00
2017-10-28T23:09:00.434Z,100.00
2017-10-28T23:11:28.050Z,100.00
2017-10-28T23:13:55.781Z,100.00
2017-10-28T23:16:23.485Z,100.00
2017-10-28T23:18:51.100Z,100.00
2017-10-28T23:21:18.743Z,100.00
2017-10-28T23:23:46.388Z,100.00
2017-10-28T23:26:14.094Z,100.00
2017-10-28T23:28:41.757Z,100.00
2017-10-28T23:31:09.358Z,100.00
2017-10-28T23:33:37.002Z,100.00
2017-10-28T23:36:04.610Z,100.00
2017-10-28T23:38:32.222Z,100.00
2017-10-28T23:40:59.867Z,100.00
2017-10-28T23:43:27.488Z,100.00
2017-10-28T23:45:56.266Z,100.00
2017-10-28T23:48:23.896Z,100.00
2017-10-28T23:50:51.571Z,100.00
2017-10-28T23:53:19.192Z,100.00
2017-10-28T23:55:46.852Z,100.00
2017-10-28T23:58:14.472Z,100.00
